createdAt,value
2022-09-09T00:01:41.438Z,14.70
2022-09-09T00:04:18.350Z,14.80
2022-09-09T00:06:55.232Z,14.70
2022-09-09T00:09:26.061Z,14.80
2022-09-09T00:11:59.040Z,14.80
2022-09-09T00:14:45.493Z,14.70
2022-09-09T00:17:40.577Z,14.70
2022-09-09T00:20:32.080Z,14.70
2022-09-09T00:23:10.189Z,14.70
2022-09-09T00:26:08.876Z,14.80
2022-09-09T00:28:46.620Z,14.70
2022-09-09T00:31:19.857Z,14.70
2022-09-09T00:33:48.937Z,14.60
2022-09-09T00:36:18.749Z,14.50
2022-09-09T00:38:56.170Z,14.60
2022-09-09T00:41:36.253Z,14.60
2022-09-09T00:44:29.021Z,14.50
2022-09-09T00:47:26.932Z,14.50
2022-09-09T00:50:47.724Z,14.50
2022-09-09T00:53:42.977Z,14.60
2022-09-09T00:56:19.582Z,14.60
2022-09-09T00:59:12.626Z,14.50
2022-09-09T01:01:40.534Z,14.60
2022-09-09T01:04:17.038Z,14.60
2022-09-09T01:06:49.254Z,14.60
2022-09-09T01:09:35.388Z,14.60
2022-09-09T01:12:30.820Z,14.70
2022-09-09T01:15:18.823Z,14.70
2022-09-09T01:18:06.836Z,14.80
2022-09-09T01:20:56.599Z,14.80
2022-09-09T01:23:43.173Z,14.80
2022-09-09T01:26:20.314Z,14.80
2022-09-09T01:28:49.788Z,14.80
2022-09-09T01:31:55.033Z,14.80
2022-09-09T01:34:23.289Z,14.80
2022-09-09T01:37:10.814Z,14.80
2022-09-09T01:39:39.787Z,14.80
2022-09-09T01:42:08.933Z,14.80
2022-09-09T01:44:37.726Z,14.90
2022-09-09T01:47:05.191Z,14.80
2022-09-09T01:49:33.600Z,14.80
2022-09-09T01:52:00.716Z,14.80
2022-09-09T01:54:31.633Z,14.80
2022-09-09T01:57:19.194Z,14.80
2022-09-09T01:59:50.271Z,14.80
2022-09-09T02:02:39.208Z,14.70
2022-09-09T02:05:13.473Z,14.70
2022-09-09T02:07:41.970Z,14.70
2022-09-09T02:10:20.439Z,14.70
2022-09-09T02:12:51.800Z,14.80
2022-09-09T02:15:37.258Z,14.70
2022-09-09T02:18:09.237Z,14.70
2022-09-09T02:20:38.910Z,14.70
2022-09-09T02:23:08.718Z,14.70
2022-09-09T02:25:37.763Z,14.60
2022-09-09T02:28:08.660Z,14.60
2022-09-09T02:30:38.341Z,14.70
2022-09-09T02:33:07.477Z,14.70
2022-09-09T02:35:38.223Z,14.70
2022-09-09T02:38:08.919Z,14.70
2022-09-09T02:40:35.552Z,14.70
2022-09-09T02:43:02.194Z,14.70
2022-09-09T02:45:43.591Z,14.70
2022-09-09T02:48:19.948Z,14.70
2022-09-09T02:51:07.333Z,14.60
2022-09-09T02:53:55.920Z,14.70
2022-09-09T02:56:26.549Z,14.60
2022-09-09T02:58:53.145Z,14.70
2022-09-09T03:01:19.845Z,14.70
2022-09-09T03:03:47.375Z,14.60
2022-09-09T03:06:15.280Z,14.60
2022-09-09T03:08:49.274Z,14.60
2022-09-09T03:11:17.003Z,14.60
2022-09-09T03:13:43.603Z,14.60
2022-09-09T03:16:10.241Z,14.60
2022-09-09T03:18:36.950Z,14.60
2022-09-09T03:21:03.732Z,14.50
2022-09-09T03:23:30.305Z,14.50
2022-09-09T03:25:59.567Z,14.50
2022-09-09T03:28:31.865Z,14.50
2022-09-09T03:31:06.081Z,14.50
2022-09-09T03:33:32.886Z,14.50
2022-09-09T03:35:59.465Z,14.50
2022-09-09T03:38:26.528Z,14.40
2022-09-09T03:40:56.438Z,14.40
2022-09-09T03:43:24.357Z,14.40
2022-09-09T03:45:51.457Z,14.40
2022-09-09T03:48:19.575Z,14.40
2022-09-09T03:50:50.775Z,14.40
2022-09-09T03:53:20.106Z,14.40
2022-09-09T03:55:48.436Z,14.40
2022-09-09T03:58:16.238Z,14.40
2022-09-09T04:00:45.931Z,14.40
2022-09-09T04:03:13.279Z,14.40
2022-09-09T04:05:43.247Z,14.40
2022-09-09T04:08:09.984Z,14.40
2022-09-09T04:10:39.674Z,14.40
2022-09-09T04:13:06.582Z,14.40
2022-09-09T04:15:34.074Z,14.40
2022-09-09T04:18:01.535Z,14.40
2022-09-09T04:20:28.367Z,14.50
2022-09-09T04:22:54.976Z,14.50
2022-09-09T04:25:21.587Z,14.40
2022-09-09T04:27:48.606Z,14.40
2022-09-09T04:30:15.292Z,14.40
2022-09-09T04:32:41.889Z,14.40
2022-09-09T04:35:08.851Z,14.40
2022-09-09T04:37:35.431Z,14.40
2022-09-09T04:40:03.477Z,14.50
2022-09-09T04:42:30.183Z,14.40
2022-09-09T04:44:56.854Z,14.40
2022-09-09T04:47:23.442Z,14.40
2022-09-09T04:49:50.644Z,14.40
2022-09-09T04:52:18.244Z,14.40
2022-09-09T04:54:46.186Z,14.40
2022-09-09T04:57:17.956Z,14.40
2022-09-09T04:59:45.454Z,14.30
2022-09-09T05:02:12.478Z,14.40
2022-09-09T05:04:39.103Z,14.30
2022-09-09T05:07:05.689Z,14.30
2022-09-09T05:09:32.299Z,14.30
2022-09-09T05:11:59.342Z,14.30
2022-09-09T05:14:25.980Z,14.30
2022-09-09T05:16:52.586Z,14.30
2022-09-09T05:19:20.731Z,14.30
2022-09-09T05:21:47.400Z,14.30
2022-09-09T05:24:14.165Z,14.30
2022-09-09T05:26:40.869Z,14.30
2022-09-09T05:29:07.795Z,14.30
2022-09-09T05:31:34.800Z,14.30
2022-09-09T05:34:01.509Z,14.30
2022-09-09T05:36:28.177Z,14.20
2022-09-09T05:38:54.893Z,14.20
2022-09-09T05:41:21.938Z,14.10
2022-09-09T05:43:49.700Z,14.20
2022-09-09T05:46:18.732Z,14.20
2022-09-09T05:48:47.516Z,14.10
2022-09-09T05:51:25.530Z,14.20
2022-09-09T05:53:52.341Z,14.20
2022-09-09T05:56:21.182Z,14.20
2022-09-09T05:58:50.858Z,14.30
2022-09-09T06:01:21.393Z,14.30
2022-09-09T06:03:49.264Z,14.30
2022-09-09T06:06:18.778Z,14.40
2022-09-09T06:08:46.163Z,14.40
2022-09-09T06:11:16.285Z,14.40
2022-09-09T06:13:43.720Z,14.40
2022-09-09T06:16:12.593Z,14.40
2022-09-09T06:18:40.178Z,14.40
2022-09-09T06:21:10.018Z,14.50
2022-09-09T06:23:36.662Z,14.50
2022-09-09T06:26:10.352Z,14.60
2022-09-09T06:28:37.909Z,14.60
2022-09-09T06:31:07.727Z,14.60
2022-09-09T06:33:41.972Z,14.60
2022-09-09T06:36:15.920Z,14.60
2022-09-09T06:38:43.542Z,14.60
2022-09-09T06:41:14.757Z,14.60
2022-09-09T06:43:41.669Z,14.60
2022-09-09T06:46:20.005Z,14.70
2022-09-09T06:48:47.022Z,14.60
2022-09-09T06:51:19.796Z,14.60
2022-09-09T06:53:47.653Z,14.60
2022-09-09T06:56:35.756Z,14.60
2022-09-09T06:59:04.853Z,14.60
2022-09-09T07:01:34.625Z,14.60
2022-09-09T07:04:02.822Z,14.70
2022-09-09T07:06:35.310Z,14.80
2022-09-09T07:09:06.199Z,14.70
2022-09-09T07:11:35.282Z,14.80
2022-09-09T07:14:02.207Z,14.90
2022-09-09T07:16:30.353Z,15.00
2022-09-09T07:18:58.823Z,15.10
2022-09-09T07:21:30.526Z,15.10
2022-09-09T07:23:57.519Z,15.30
2022-09-09T07:26:30.502Z,15.20
2022-09-09T07:28:58.123Z,15.20
2022-09-09T07:31:33.406Z,15.30
2022-09-09T07:34:01.072Z,15.40
2022-09-09T07:36:36.602Z,15.50
2022-09-09T07:39:10.649Z,15.50
2022-09-09T07:41:40.775Z,15.60
2022-09-09T07:44:16.242Z,15.60
2022-09-09T07:46:43.443Z,15.60
2022-09-09T07:49:11.741Z,15.70
2022-09-09T07:51:40.243Z,15.70
2022-09-09T07:54:10.551Z,15.90
2022-09-09T07:56:40.283Z,16.10
2022-09-09T07:59:07.868Z,16.50
2022-09-09T08:01:40.045Z,16.90
2022-09-09T08:04:18.823Z,17.30
2022-09-09T08:06:47.871Z,17.70
2022-09-09T08:09:15.734Z,18.60
2022-09-09T08:11:43.987Z,19.00
2022-09-09T08:14:12.452Z,19.30
2022-09-09T08:16:45.233Z,19.10
2022-09-09T08:19:12.437Z,19.00
2022-09-09T08:21:41.195Z,19.30
2022-09-09T08:24:09.092Z,19.80
2022-09-09T08:26:44.191Z,20.40
2022-09-09T08:29:12.639Z,20.70
2022-09-09T08:31:41.991Z,20.30
2022-09-09T08:34:10.056Z,20.00
2022-09-09T08:36:40.142Z,19.80
2022-09-09T08:39:08.008Z,19.50
2022-09-09T08:41:53.241Z,19.10
2022-09-09T08:44:35.139Z,19.10
2022-09-09T08:47:19.746Z,19.50
2022-09-09T08:50:06.605Z,19.40
2022-09-09T08:53:09.400Z,19.10
2022-09-09T08:55:56.734Z,18.80
2022-09-09T08:58:30.251Z,18.70
2022-09-09T09:01:09.187Z,18.60
2022-09-09T09:04:00.887Z,19.30
2022-09-09T09:06:31.760Z,19.50
2022-09-09T09:09:12.477Z,19.40
2022-09-09T09:11:41.538Z,19.20
2022-09-09T09:14:15.514Z,19.20
2022-09-09T09:16:58.500Z,18.90
2022-09-09T09:19:27.181Z,18.70
2022-09-09T09:22:23.355Z,18.60
2022-09-09T09:24:54.753Z,18.70
2022-09-09T09:27:44.993Z,18.80
2022-09-09T09:30:29.893Z,19.00
2022-09-09T09:33:04.955Z,19.10
2022-09-09T09:35:31.627Z,19.20
2022-09-09T09:41:11.936Z,19.00
2022-09-09T09:43:43.323Z,19.00
2022-09-09T09:46:26.531Z,19.20
2022-09-09T09:49:10.456Z,19.50
2022-09-09T09:51:37.462Z,20.00
2022-09-09T09:54:28.693Z,20.40
2022-09-09T09:56:55.402Z,20.40
2022-09-09T09:59:39.134Z,20.50
2022-09-09T10:02:16.751Z,20.60
2022-09-09T10:04:44.136Z,20.70
2022-09-09T10:07:19.599Z,20.70
2022-09-09T10:09:50.209Z,20.70
2022-09-09T10:12:57.123Z,20.40
2022-09-09T10:15:37.344Z,20.10
2022-09-09T10:18:41.444Z,20.30
2022-09-09T10:21:58.815Z,20.30
2022-09-09T10:25:03.102Z,20.50
2022-09-09T10:27:48.447Z,20.30
2022-09-09T10:30:25.764Z,20.10
2022-09-09T10:36:08.041Z,19.90
2022-09-09T10:38:44.335Z,20.20
2022-09-09T10:41:21.207Z,20.60
2022-09-09T10:44:15.454Z,20.80
2022-09-09T10:46:48.071Z,20.80
2022-09-09T10:49:34.877Z,20.70
2022-09-09T10:52:09.774Z,21.10
2022-09-09T10:54:36.339Z,21.20
2022-09-09T10:57:14.779Z,21.10
2022-09-09T10:59:48.650Z,20.90
2022-09-09T11:02:27.991Z,20.80
2022-09-09T11:05:00.218Z,20.70
2022-09-09T11:07:37.359Z,20.80
2022-09-09T11:10:26.971Z,20.70
2022-09-09T11:12:59.397Z,20.60
2022-09-09T11:15:40.412Z,20.60
2022-09-09T11:18:11.376Z,20.50
2022-09-09T11:20:41.466Z,20.70
2022-09-09T11:23:23.296Z,20.70
2022-09-09T11:25:57.809Z,20.70
2022-09-09T11:28:33.637Z,20.80
2022-09-09T11:31:09.874Z,21.00
2022-09-09T11:33:39.603Z,21.10
2022-09-09T11:36:30.120Z,21.40
2022-09-09T11:39:14.896Z,21.40
2022-09-09T11:41:41.626Z,21.30
2022-09-09T11:44:21.339Z,21.40
2022-09-09T11:46:52.035Z,21.50
2022-09-09T11:49:46.490Z,21.50
2022-09-09T11:52:23.497Z,21.20
2022-09-09T11:54:51.291Z,21.20
2022-09-09T11:57:38.345Z,21.30
2022-09-09T12:00:06.388Z,21.30
2022-09-09T12:02:33.391Z,21.20
2022-09-09T12:05:06.634Z,21.10
2022-09-09T12:08:04.445Z,21.00
2022-09-09T12:10:33.924Z,21.20
2022-09-09T12:13:20.734Z,21.40
2022-09-09T12:15:58.700Z,21.60
2022-09-09T12:18:32.766Z,21.60
2022-09-09T12:21:42.981Z,21.70
2022-09-09T12:24:17.669Z,21.60
2022-09-09T12:27:13.810Z,21.50
2022-09-09T12:29:57.291Z,21.20
2022-09-09T12:32:29.865Z,20.90
2022-09-09T12:35:02.933Z,20.80
2022-09-09T12:37:39.220Z,20.80
2022-09-09T12:40:27.384Z,20.80
2022-09-09T12:42:54.884Z,20.80
2022-09-09T12:45:26.185Z,20.70
2022-09-09T12:47:56.982Z,20.60
2022-09-09T12:50:29.073Z,20.60
2022-09-09T12:53:01.321Z,20.70
2022-09-09T12:55:34.552Z,20.90
2022-09-09T12:58:05.583Z,21.10
2022-09-09T13:00:33.150Z,21.40
2022-09-09T13:03:03.050Z,21.30
2022-09-09T13:05:36.557Z,21.20
2022-09-09T13:08:10.078Z,21.10
2022-09-09T13:10:58.920Z,20.90
2022-09-09T13:13:33.769Z,20.70
2022-09-09T13:16:02.586Z,20.50
2022-09-09T13:18:39.098Z,20.30
2022-09-09T13:21:05.900Z,19.90
2022-09-09T13:23:36.157Z,19.50
2022-09-09T13:26:24.168Z,19.20
2022-09-09T13:28:51.465Z,19.10
2022-09-09T13:31:24.534Z,19.00
2022-09-09T13:33:51.362Z,19.00
2022-09-09T13:36:30.130Z,19.10
2022-09-09T13:39:00.410Z,19.40
2022-09-09T13:41:33.429Z,19.50
2022-09-09T13:44:00.798Z,19.50
2022-09-09T13:46:41.232Z,19.80
2022-09-09T13:49:11.098Z,19.60
2022-09-09T13:51:43.201Z,19.60
2022-09-09T13:54:11.458Z,19.60
2022-09-09T13:56:39.703Z,19.70
2022-09-09T13:59:13.924Z,19.70
2022-09-09T14:01:40.618Z,19.70
2022-09-09T14:04:07.545Z,19.70
2022-09-09T14:06:38.149Z,19.60
2022-09-09T14:09:05.942Z,19.70
2022-09-09T14:11:32.784Z,19.60
2022-09-09T14:13:59.387Z,19.40
2022-09-09T14:16:27.593Z,19.10
2022-09-09T14:18:54.315Z,18.70
2022-09-09T14:21:21.114Z,18.50
2022-09-09T14:23:47.732Z,18.20
2022-09-09T14:26:15.226Z,18.00
2022-09-09T14:28:57.652Z,17.80
2022-09-09T14:31:25.573Z,17.80
2022-09-09T14:33:52.485Z,17.90
2022-09-09T14:36:19.539Z,17.70
2022-09-09T14:38:46.472Z,17.80
2022-09-09T14:41:17.843Z,17.90
2022-09-09T14:43:45.476Z,17.80
2022-09-09T14:46:15.395Z,18.00
2022-09-09T14:48:42.250Z,18.10
2022-09-09T14:51:35.136Z,18.30
2022-09-09T14:54:02.910Z,18.50
2022-09-09T14:56:32.130Z,18.60
2022-09-09T14:59:01.579Z,18.60
2022-09-09T15:01:30.304Z,18.60
2022-09-09T15:03:59.231Z,18.60
2022-09-09T15:06:28.385Z,18.60
2022-09-09T15:08:58.566Z,18.60
2022-09-09T15:11:28.682Z,18.60
2022-09-09T15:13:55.611Z,18.60
2022-09-09T15:16:24.999Z,18.60
2022-09-09T15:18:54.018Z,18.60
2022-09-09T15:21:22.641Z,18.70
2022-09-09T15:23:50.003Z,18.60
2022-09-09T15:26:17.926Z,18.60
2022-09-09T15:28:46.462Z,18.60
2022-09-09T15:31:21.035Z,18.60
2022-09-09T15:33:52.752Z,18.50
2022-09-09T15:36:27.415Z,18.50
2022-09-09T15:38:54.135Z,18.60
2022-09-09T15:41:23.129Z,18.60
2022-09-09T15:43:52.986Z,18.60
2022-09-09T15:46:37.032Z,18.50
2022-09-09T15:49:18.292Z,18.50
2022-09-09T15:51:47.134Z,18.50
2022-09-09T15:54:17.837Z,18.50
2022-09-09T15:56:46.331Z,18.50
2022-09-09T15:59:13.094Z,18.40
2022-09-09T16:01:43.877Z,18.40
2022-09-09T16:04:11.372Z,18.50
2022-09-09T16:06:38.331Z,18.30
2022-09-09T16:09:06.759Z,18.40
2022-09-09T16:11:36.562Z,18.50
2022-09-09T16:14:06.225Z,18.50
2022-09-09T16:16:33.310Z,18.60
2022-09-09T16:19:04.098Z,18.50
2022-09-09T16:21:41.839Z,18.60
2022-09-09T16:24:12.394Z,18.50
2022-09-09T16:26:41.166Z,18.50
2022-09-09T16:29:07.825Z,18.50
2022-09-09T16:31:34.991Z,18.40
2022-09-09T16:34:01.709Z,18.40
2022-09-09T16:36:32.925Z,18.50
2022-09-09T16:39:02.221Z,18.40
2022-09-09T16:41:30.272Z,18.40
2022-09-09T16:44:00.091Z,18.40
2022-09-09T16:46:28.684Z,18.40
2022-09-09T16:48:57.728Z,18.40
2022-09-09T16:51:27.893Z,18.40
2022-09-09T16:53:55.620Z,18.40
2022-09-09T16:56:27.883Z,18.40
2022-09-09T16:58:57.827Z,18.50
2022-09-09T17:01:33.860Z,18.40
2022-09-09T17:04:03.844Z,18.40
2022-09-09T17:06:31.770Z,18.40
2022-09-09T17:09:00.626Z,18.40
2022-09-09T17:11:27.702Z,18.40
2022-09-09T17:13:55.550Z,18.40
2022-09-09T17:16:24.463Z,18.30
2022-09-09T17:18:52.994Z,18.30
2022-09-09T17:21:22.135Z,18.20
2022-09-09T17:23:50.549Z,18.10
2022-09-09T17:26:20.327Z,18.20
2022-09-09T17:28:47.249Z,18.20
2022-09-09T17:31:16.734Z,18.20
2022-09-09T17:33:48.859Z,18.20
2022-09-09T17:36:19.964Z,18.20
2022-09-09T17:38:47.762Z,18.20
2022-09-09T17:41:17.558Z,18.20
2022-09-09T17:43:44.547Z,18.20
2022-09-09T17:46:15.229Z,18.10
2022-09-09T17:48:43.757Z,18.10
2022-09-09T17:51:13.798Z,18.10
2022-09-09T17:53:45.905Z,18.10
2022-09-09T17:56:15.298Z,18.10
2022-09-09T17:58:42.260Z,18.10
2022-09-09T18:01:31.052Z,18.10
2022-09-09T18:04:02.326Z,18.10
2022-09-09T18:06:33.760Z,18.10
2022-09-09T18:09:04.186Z,18.00
2022-09-09T18:11:33.865Z,18.00
2022-09-09T18:14:02.897Z,18.00
2022-09-09T18:16:35.892Z,18.00
2022-09-09T18:19:04.194Z,18.00
2022-09-09T18:21:33.209Z,18.00
2022-09-09T18:24:01.837Z,17.80
2022-09-09T18:26:29.346Z,17.90
2022-09-09T18:28:59.317Z,17.90
2022-09-09T18:31:28.657Z,17.80
2022-09-09T18:33:58.399Z,17.80
2022-09-09T18:36:34.097Z,17.70
2022-09-09T18:39:03.505Z,17.70
2022-09-09T18:41:33.483Z,17.70
2022-09-09T18:44:03.125Z,17.70
2022-09-09T18:46:32.920Z,17.70
2022-09-09T18:48:59.556Z,17.70
2022-09-09T18:51:28.458Z,17.60
2022-09-09T18:54:01.167Z,17.60
2022-09-09T18:56:29.552Z,17.60
2022-09-09T18:58:58.868Z,17.60
2022-09-09T19:01:26.264Z,17.50
2022-09-09T19:03:54.275Z,17.40
2022-09-09T19:06:23.780Z,17.50
2022-09-09T19:08:55.139Z,17.40
2022-09-09T19:11:24.296Z,17.50
2022-09-09T19:14:00.122Z,17.50
2022-09-09T19:16:29.756Z,17.40
2022-09-09T19:19:00.581Z,17.40
2022-09-09T19:21:30.840Z,17.40
2022-09-09T19:24:12.394Z,17.30
2022-09-09T19:26:43.227Z,17.30
2022-09-09T19:29:12.365Z,17.30
2022-09-09T19:31:39.081Z,17.30
2022-09-09T19:34:05.694Z,17.20
2022-09-09T19:36:32.308Z,17.30
2022-09-09T19:38:59.006Z,17.20
2022-09-09T19:41:27.498Z,17.20
2022-09-09T19:44:01.662Z,17.20
2022-09-09T19:46:34.249Z,17.10
2022-09-09T19:49:01.325Z,17.20
2022-09-09T19:51:30.005Z,17.20
2022-09-09T19:53:59.557Z,17.20
2022-09-09T19:56:27.461Z,17.10
2022-09-09T19:58:54.961Z,17.00
2022-09-09T20:01:24.961Z,16.90
2022-09-09T20:03:54.213Z,16.80
2022-09-09T20:06:23.995Z,16.80
2022-09-09T20:08:50.983Z,16.90
2022-09-09T20:11:17.827Z,16.80
2022-09-09T20:13:44.487Z,16.90
2022-09-09T20:16:17.120Z,16.80
2022-09-09T20:18:52.618Z,16.70
2022-09-09T20:21:20.944Z,16.70
2022-09-09T20:23:49.211Z,16.70
2022-09-09T20:26:18.368Z,16.60
2022-09-09T20:28:45.418Z,16.60
2022-09-09T20:31:15.666Z,16.50
2022-09-09T20:33:43.841Z,16.50
2022-09-09T20:36:11.497Z,16.50
2022-09-09T20:38:42.632Z,16.40
2022-09-09T20:41:11.505Z,16.40
2022-09-09T20:43:38.091Z,16.40
2022-09-09T20:46:04.837Z,16.30
2022-09-09T20:48:34.447Z,16.30
2022-09-09T20:51:09.763Z,16.20
2022-09-09T20:53:37.781Z,16.20
2022-09-09T20:56:05.171Z,16.20
2022-09-09T20:58:33.555Z,16.20
2022-09-09T21:01:02.165Z,16.10
2022-09-09T21:03:37.073Z,16.10
2022-09-09T21:06:05.851Z,16.10
2022-09-09T21:08:33.502Z,16.10
2022-09-09T21:11:03.865Z,16.10
2022-09-09T21:13:32.268Z,16.00
2022-09-09T21:15:59.225Z,16.00
2022-09-09T21:18:29.251Z,16.00
2022-09-09T21:20:56.812Z,16.00
2022-09-09T21:23:24.151Z,15.90
2022-09-09T21:25:51.445Z,16.00
2022-09-09T21:28:18.182Z,15.90
2022-09-09T21:30:49.325Z,15.90
2022-09-09T21:33:17.470Z,16.00
2022-09-09T21:35:44.953Z,15.90
2022-09-09T21:38:20.144Z,15.90
2022-09-09T21:40:48.118Z,15.90
2022-09-09T21:43:14.802Z,15.90
2022-09-09T21:45:42.243Z,15.90
2022-09-09T21:48:15.135Z,15.80
2022-09-09T21:50:47.593Z,15.90
2022-09-09T21:53:15.914Z,15.80
2022-09-09T21:55:43.628Z,15.70
2022-09-09T21:58:11.513Z,15.80
2022-09-09T22:00:46.245Z,15.70
2022-09-09T22:03:17.452Z,15.70
2022-09-09T22:05:45.808Z,15.60
2022-09-09T22:08:14.678Z,15.50
2022-09-09T22:10:45.670Z,15.50
2022-09-09T22:13:14.160Z,15.50
2022-09-09T22:15:43.214Z,15.50
2022-09-09T22:18:10.700Z,15.50
2022-09-09T22:20:43.323Z,15.50
2022-09-09T22:23:11.366Z,15.60
2022-09-09T22:25:38.863Z,15.60
2022-09-09T22:28:07.285Z,15.60
2022-09-09T22:30:34.025Z,15.50
2022-09-09T22:33:01.425Z,15.50
2022-09-09T22:35:28.674Z,15.50
2022-09-09T22:37:55.835Z,15.50
2022-09-09T22:40:22.704Z,15.50
2022-09-09T22:42:52.541Z,15.50
2022-09-09T22:45:20.710Z,15.50
2022-09-09T22:47:47.720Z,15.40
2022-09-09T22:50:14.416Z,15.40
2022-09-09T22:52:41.021Z,15.40
2022-09-09T22:55:09.175Z,15.40
2022-09-09T22:57:35.973Z,15.30
2022-09-09T23:00:07.014Z,15.30
2022-09-09T23:02:38.636Z,15.30
2022-09-09T23:05:09.840Z,15.40
2022-09-09T23:07:37.087Z,15.30
2022-09-09T23:10:07.037Z,15.30
2022-09-09T23:12:34.297Z,15.30
2022-09-09T23:15:01.279Z,15.20
2022-09-09T23:17:27.874Z,15.30
2022-09-09T23:19:56.308Z,15.30
2022-09-09T23:22:24.236Z,15.40
2022-09-09T23:24:53.943Z,15.40
2022-09-09T23:27:24.046Z,15.40
2022-09-09T23:29:51.683Z,15.40
2022-09-09T23:32:18.622Z,15.50
2022-09-09T23:34:45.846Z,15.30
2022-09-09T23:37:12.688Z,15.30
2022-09-09T23:39:40.455Z,15.30
2022-09-09T23:42:08.625Z,15.20
2022-09-09T23:44:38.080Z,15.20
2022-09-09T23:47:05.634Z,15.20
2022-09-09T23:49:33.562Z,15.20
2022-09-09T23:52:04.241Z,15.20
2022-09-09T23:54:31.113Z,15.20
2022-09-09T23:56:57.712Z,15.10
2022-09-09T23:59:24.383Z,15.20
